Time;durP1;ratioP1;P1;durP2;ratioP2;P2;SDS_P1;SDS_P2;PMS_P1;PMS_P2;Temp;Humidity;BMP_temperature;BMP_pressure;BME280_temperature;BME280_humidity;BME280_pressure;Samples;Min_cycle;Max_cycle;Signal;HPM_P1;HPM_P2
2022/12/15 00:38:44;;;;;;;32.65;18.73;;;-5.40;99.90;;;;;;5061393;28;20123;-75
2022/12/15 00:41:12;;;;;;;32.45;17.70;;;-5.40;99.90;;;;;;5038565;28;20040;-76
2022/12/15 00:43:38;;;;;;;31.42;19.15;;;-5.40;99.90;;;;;;5061303;28;20076;-75
2022/12/15 00:48:48;;;;;;;29.55;18.15;;;-5.40;99.90;;;;;;5041879;28;20506;-76
2022/12/15 00:51:15;;;;;;;31.23;18.77;;;-5.40;99.90;;;;;;5059913;28;20155;-76
2022/12/15 01:21:08;;;;;;;30.20;17.75;;;-5.40;99.90;;;;;;5046890;28;20053;-76
2022/12/15 01:23:35;;;;;;;26.93;18.40;;;-5.40;99.90;;;;;;5066898;28;20482;-76
2022/12/15 01:26:02;;;;;;;29.25;17.70;;;-5.40;99.90;;;;;;5059083;28;20303;-76
2022/12/15 01:28:28;;;;;;;30.00;17.08;;;-5.40;99.90;;;;;;5055308;28;20405;-76
2022/12/15 01:30:53;;;;;;;26.73;16.88;;;-5.40;99.90;;;;;;5058697;28;20036;-76
2022/12/15 01:33:20;;;;;;;25.95;17.83;;;-5.40;99.90;;;;;;5052355;28;20040;-76
2022/12/15 01:36:00;;;;;;;29.88;17.40;;;-5.40;99.90;;;;;;5078822;28;20040;-77
2022/12/15 01:38:27;;;;;;;28.30;17.23;;;-5.40;99.90;;;;;;5080119;28;20055;-77
2022/12/15 01:40:59;;;;;;;26.77;16.90;;;-5.40;99.90;;;;;;5075868;28;20573;-77
2022/12/15 01:43:29;;;;;;;27.88;18.65;;;-5.40;99.90;;;;;;5080362;28;20071;-77
2022/12/15 01:46:09;;;;;;;28.95;17.60;;;-5.40;99.90;;;;;;5068175;28;20062;-76
2022/12/15 01:48:50;;;;;;;27.98;17.90;;;-5.30;99.90;;;;;;5071718;28;20050;-76
2022/12/15 01:51:32;;;;;;;27.55;18.45;;;-5.30;99.90;;;;;;5096788;28;20086;-76
2022/12/15 01:54:06;;;;;;;28.98;17.08;;;-5.30;99.90;;;;;;5077671;28;20043;-76
2022/12/15 01:56:39;;;;;;;31.77;18.88;;;-5.30;99.90;;;;;;5087425;28;20076;-76
2022/12/15 01:59:08;;;;;;;27.95;18.05;;;-5.20;99.90;;;;;;5087905;28;20071;-76
2022/12/15 02:01:34;;;;;;;27.23;17.58;;;-5.20;99.90;;;;;;5084973;28;20393;-76
2022/12/15 02:04:00;;;;;;;28.63;18.05;;;-5.10;99.90;;;;;;5083542;28;20112;-76
2022/12/15 02:06:27;;;;;;;25.02;18.05;;;-5.20;99.90;;;;;;5069105;28;20462;-76
2022/12/15 02:08:56;;;;;;;27.23;17.70;;;-5.20;99.90;;;;;;5083216;28;20040;-76
2022/12/15 02:11:51;;;;;;;31.33;18.42;;;-5.20;99.90;;;;;;5087159;28;20105;-76
2022/12/15 02:14:45;;;;;;;31.20;17.02;;;-5.20;99.90;;;;;;5081309;28;20036;-76
2022/12/15 02:17:34;;;;;;;25.08;16.67;;;-5.20;99.90;;;;;;5076598;28;20402;-76
2022/12/15 02:20:44;;;;;;;28.30;17.58;;;-5.20;99.90;;;;;;5080146;28;20148;-76
2022/12/15 02:23:38;;;;;;;28.20;17.35;;;-5.20;99.90;;;;;;5041196;28;20597;-76
2022/12/15 02:26:21;;;;;;;28.83;17.48;;;-5.20;99.90;;;;;;5075951;28;20123;-76
2022/12/15 02:29:23;;;;;;;25.48;17.30;;;-5.20;99.90;;;;;;5077407;28;20044;-76
2022/12/15 02:31:54;;;;;;;27.50;17.85;;;-5.20;99.90;;;;;;4986238;28;20067;-76
2022/12/15 02:34:41;;;;;;;27.83;16.92;;;-5.20;99.90;;;;;;4970672;28;20069;-77
2022/12/15 02:37:18;;;;;;;27.08;18.10;;;-5.20;99.90;;;;;;4980988;28;20453;-77
2022/12/15 02:39:44;;;;;;;27.52;17.02;;;-5.20;99.90;;;;;;4980291;28;20050;-77
2022/12/15 02:42:11;;;;;;;29.85;17.38;;;-5.30;99.90;;;;;;4965943;28;20112;-77
2022/12/15 02:44:48;;;;;;;27.98;17.15;;;-5.30;99.90;;;;;;4964622;28;20054;-77
2022/12/15 02:47:25;;;;;;;27.20;16.77;;;-5.30;99.90;;;;;;4985379;28;20460;-77
2022/12/15 02:50:04;;;;;;;27.27;17.30;;;-5.30;99.90;;;;;;4984144;28;20066;-77
2022/12/15 02:52:37;;;;;;;30.55;17.92;;;-5.30;99.90;;;;;;4984853;28;20054;-77
2022/12/15 02:55:18;;;;;;;27.35;17.42;;;-5.30;99.90;;;;;;4964289;28;20086;-77
2022/12/15 02:57:59;;;;;;;26.33;17.25;;;-5.30;99.90;;;;;;4979804;28;20085;-77
2022/12/15 03:00:26;;;;;;;26.85;17.65;;;-5.30;99.90;;;;;;4979092;28;20046;-77
2022/12/15 03:02:54;;;;;;;30.42;17.13;;;-5.30;99.90;;;;;;4987880;28;20519;-77
2022/12/15 03:05:21;;;;;;;26.42;17.33;;;-5.30;99.90;;;;;;4985814;28;20112;-77
2022/12/15 03:07:52;;;;;;;24.77;17.27;;;-5.30;99.90;;;;;;4982919;28;20046;-77
2022/12/15 03:10:20;;;;;;;26.20;17.20;;;-5.30;99.90;;;;;;5070282;28;20405;-77
2022/12/15 03:12:46;;;;;;;26.33;16.70;;;-5.40;99.90;;;;;;5075359;28;20118;-77
2022/12/15 03:15:12;;;;;;;27.17;16.80;;;-5.40;99.90;;;;;;5076394;28;20569;-77
2022/12/15 03:17:38;;;;;;;27.95;17.17;;;-5.40;99.90;;;;;;5073890;28;20067;-76
2022/12/15 03:20:04;;;;;;;28.35;16.55;;;-5.40;99.90;;;;;;5072520;28;20040;-76
2022/12/15 03:22:30;;;;;;;24.35;15.38;;;-5.40;99.90;;;;;;5075798;28;20036;-76
2022/12/15 03:24:56;;;;;;;25.80;16.48;;;-5.40;99.90;;;;;;5076521;28;20062;-77
2022/12/15 03:27:22;;;;;;;27.83;16.33;;;-5.50;99.90;;;;;;5077588;28;20475;-76
2022/12/15 03:29:48;;;;;;;24.83;16.30;;;-5.40;99.90;;;;;;5075023;28;20101;-76
2022/12/15 03:32:13;;;;;;;23.42;15.57;;;-5.40;99.90;;;;;;5077884;28;20104;-76
2022/12/15 03:34:39;;;;;;;24.17;16.10;;;-5.40;99.90;;;;;;5056449;28;20036;-76
2022/12/15 03:37:05;;;;;;;26.65;16.88;;;-5.40;99.90;;;;;;5074379;28;20672;-76
2022/12/15 03:39:30;;;;;;;26.63;16.83;;;-5.40;99.90;;;;;;5076780;28;20037;-77
2022/12/15 03:41:56;;;;;;;25.48;16.67;;;-5.30;99.90;;;;;;5078846;28;20063;-80
2022/12/15 03:44:21;;;;;;;21.55;14.95;;;-5.30;99.90;;;;;;5085350;28;20119;-75
2022/12/15 03:46:47;;;;;;;23.83;15.95;;;-5.20;99.90;;;;;;5087536;28;20040;-76
2022/12/15 03:49:13;;;;;;;29.20;16.00;;;-5.30;99.90;;;;;;5082929;28;20036;-78
2022/12/15 03:51:38;;;;;;;23.05;15.43;;;-5.20;99.90;;;;;;5084087;28;20036;-78
2022/12/15 03:54:04;;;;;;;24.77;15.63;;;-5.20;99.90;;;;;;5067332;28;20043;-78
2022/12/15 03:56:29;;;;;;;26.83;16.35;;;-5.10;99.90;;;;;;5083015;28;20067;-78
2022/12/15 03:58:55;;;;;;;25.38;16.67;;;-5.10;99.90;;;;;;5084165;28;20075;-78
2022/12/15 04:01:34;;;;;;;27.73;16.35;;;-5.10;99.90;;;;;;5075809;28;20072;-77
2022/12/15 04:04:00;;;;;;;28.33;15.77;;;-5.10;99.90;;;;;;5078392;28;22393;-77
2022/12/15 04:06:30;;;;;;;26.77;17.17;;;-5.10;99.90;;;;;;5060288;28;20044;-77
2022/12/15 04:08:55;;;;;;;25.77;16.13;;;-5.10;99.90;;;;;;5080326;28;20032;-77
2022/12/15 04:11:21;;;;;;;25.88;16.23;;;-5.10;99.90;;;;;;5080053;28;20451;-77
2022/12/15 04:13:47;;;;;;;26.33;16.92;;;-5.10;99.90;;;;;;5080657;28;20127;-77
2022/12/15 04:16:12;;;;;;;22.38;15.20;;;-5.10;99.90;;;;;;5056393;28;20394;-78
2022/12/15 04:18:38;;;;;;;29.25;16.55;;;-5.10;99.90;;;;;;5061855;28;20486;-78
2022/12/15 04:21:04;;;;;;;26.73;16.02;;;-5.10;99.90;;;;;;5061086;28;20829;-78
2022/12/15 04:23:29;;;;;;;26.17;15.57;;;-5.10;99.90;;;;;;5076631;28;20323;-78
2022/12/15 05:32:06;;;;;;;23.60;15.25;;;-5.10;99.90;;;;;;5079211;28;20383;-77
2022/12/15 05:34:33;;;;;;;29.00;16.48;;;-5.10;99.90;;;;;;5078515;28;20085;-77
2022/12/15 05:37:06;;;;;;;24.83;16.02;;;-5.10;99.90;;;;;;5055538;28;20133;-77
2022/12/15 05:39:32;;;;;;;27.42;16.58;;;-5.10;99.90;;;;;;5057197;28;20052;-77
2022/12/15 05:41:58;;;;;;;25.20;17.33;;;-5.10;99.90;;;;;;5088980;28;20043;-78
2022/12/15 05:44:24;;;;;;;26.13;16.58;;;-5.10;99.90;;;;;;5082551;28;20036;-79
2022/12/15 05:46:50;;;;;;;26.10;16.20;;;-5.20;99.90;;;;;;5085260;28;20044;-78
2022/12/15 05:49:17;;;;;;;26.55;15.95;;;-5.20;99.90;;;;;;5062668;28;20043;-79
2022/12/15 05:51:46;;;;;;;23.75;15.70;;;-5.20;99.90;;;;;;5066675;28;20499;-78
2022/12/15 05:54:15;;;;;;;23.25;15.48;;;-5.20;99.90;;;;;;5079450;28;21641;-77
2022/12/15 05:56:40;;;;;;;26.50;16.35;;;-5.20;99.90;;;;;;5061962;28;20051;-77
2022/12/15 05:59:06;;;;;;;23.52;15.90;;;-5.20;99.90;;;;;;5052314;28;20036;-77
2022/12/15 06:01:34;;;;;;;28.02;16.77;;;-5.20;99.90;;;;;;5066947;28;20032;-77
2022/12/15 06:04:00;;;;;;;22.13;16.48;;;-5.20;99.90;;;;;;5049998;28;20169;-77
2022/12/15 06:06:26;;;;;;;27.20;16.40;;;-5.20;99.90;;;;;;5082620;28;20036;-77
2022/12/15 06:08:52;;;;;;;25.40;17.75;;;-5.20;99.90;;;;;;5090293;28;20029;-77
2022/12/15 06:11:21;;;;;;;26.08;16.70;;;-5.20;99.90;;;;;;5083952;28;20518;-77
2022/12/15 06:13:46;;;;;;;29.48;16.50;;;-5.20;99.90;;;;;;5064076;28;20043;-77
2022/12/15 06:16:21;;;;;;;26.27;17.08;;;-5.20;99.90;;;;;;5047059;28;20119;-76
2022/12/15 06:18:50;;;;;;;25.98;16.67;;;-5.30;99.90;;;;;;5052686;28;20045;-77
2022/12/15 06:21:24;;;;;;;27.85;17.80;;;-5.20;99.90;;;;;;5070494;28;20037;-78
2022/12/15 06:23:51;;;;;;;27.77;16.80;;;-5.20;99.90;;;;;;5040894;28;20146;-79
2022/12/15 06:26:19;;;;;;;27.35;16.77;;;-5.10;99.90;;;;;;5070915;28;20356;-78
2022/12/15 06:28:49;;;;;;;26.75;17.02;;;-5.10;99.90;;;;;;5073591;28;20046;-79
2022/12/15 06:31:16;;;;;;;24.77;16.25;;;-5.10;99.90;;;;;;5068486;28;20083;-79
2022/12/15 06:33:42;;;;;;;27.60;17.20;;;-5.10;99.90;;;;;;5048058;28;20037;-77
2022/12/15 06:36:11;;;;;;;31.02;19.02;;;-5.00;99.90;;;;;;5066931;28;20106;-77
2022/12/15 06:38:37;;;;;;;28.17;17.50;;;-5.00;99.90;;;;;;5060041;28;20032;-75
2022/12/15 06:41:05;;;;;;;30.92;18.88;;;-5.00;99.90;;;;;;5041518;28;20048;-76
2022/12/15 06:43:32;;;;;;;28.23;17.88;;;-4.90;99.90;;;;;;5065228;28;20136;-75
2022/12/15 06:45:58;;;;;;;29.60;18.50;;;-4.90;99.90;;;;;;5059640;28;20123;-76
2022/12/15 06:48:25;;;;;;;31.00;17.77;;;-4.90;99.90;;;;;;5061782;28;20049;-75
2022/12/15 06:50:51;;;;;;;32.30;19.52;;;-4.80;99.90;;;;;;5058008;28;20470;-77
2022/12/15 06:53:19;;;;;;;28.08;18.35;;;-4.80;99.90;;;;;;5048074;28;20091;-78
2022/12/15 06:55:45;;;;;;;29.27;17.58;;;-4.80;99.90;;;;;;5049979;28;20041;-78
2022/12/15 06:58:12;;;;;;;28.90;18.17;;;-4.80;99.90;;;;;;5059528;28;20068;-76
2022/12/15 07:00:40;;;;;;;26.70;18.08;;;-4.80;99.90;;;;;;5063165;28;20123;-79
2022/12/15 07:03:11;;;;;;;27.75;18.35;;;-4.80;99.90;;;;;;5061271;28;20041;-77
2022/12/15 07:05:37;;;;;;;25.20;17.70;;;-4.70;99.90;;;;;;5055073;28;20040;-81
2022/12/15 07:08:02;;;;;;;28.55;18.38;;;-4.80;99.90;;;;;;5077616;28;20040;-76
2022/12/15 07:10:28;;;;;;;25.95;17.17;;;-4.80;99.90;;;;;;5074725;28;20513;-74
2022/12/15 07:12:55;;;;;;;29.90;17.73;;;-4.80;99.90;;;;;;5069098;28;20141;-75
2022/12/15 07:15:22;;;;;;;28.98;18.30;;;-4.80;99.90;;;;;;5077045;28;20056;-75
2022/12/15 07:17:48;;;;;;;33.13;19.30;;;-4.80;99.90;;;;;;5067298;28;20041;-75
2022/12/15 07:20:14;;;;;;;28.60;17.90;;;-4.70;99.90;;;;;;5048412;28;20047;-76
2022/12/15 07:22:39;;;;;;;27.40;17.67;;;-4.70;99.90;;;;;;5065550;28;20068;-75
2022/12/15 07:25:06;;;;;;;30.02;18.17;;;-4.70;99.90;;;;;;5067542;28;20091;-75
2022/12/15 07:27:31;;;;;;;26.65;17.20;;;-4.70;99.90;;;;;;5066553;28;20040;-76
2022/12/15 07:29:57;;;;;;;24.67;18.05;;;-4.70;99.90;;;;;;5066936;28;20098;-75
2022/12/15 07:32:22;;;;;;;34.38;19.00;;;-4.60;99.90;;;;;;5065059;28;20123;-75
2022/12/15 07:34:48;;;;;;;30.13;18.75;;;-4.70;99.90;;;;;;5058955;28;20040;-75
2022/12/15 07:37:15;;;;;;;28.55;18.23;;;-4.50;99.90;;;;;;5066167;28;20451;-75
2022/12/15 07:39:40;;;;;;;30.25;18.80;;;-4.50;99.90;;;;;;5069111;28;20478;-76
2022/12/15 07:42:06;;;;;;;30.30;19.65;;;-4.40;99.90;;;;;;5067984;28;20048;-76
2022/12/15 07:44:31;;;;;;;28.50;18.73;;;-4.40;99.90;;;;;;5065054;28;20384;-75
2022/12/15 07:46:57;;;;;;;30.08;18.85;;;-4.40;99.90;;;;;;5065241;28;20104;-73
2022/12/15 07:49:23;;;;;;;32.17;18.05;;;-4.40;99.90;;;;;;5064346;28;20037;-74
2022/12/15 07:51:48;;;;;;;34.42;20.08;;;-4.40;99.90;;;;;;5065627;28;20490;-74
2022/12/15 07:54:14;;;;;;;29.63;18.70;;;-4.30;99.90;;;;;;5066156;28;20083;-74
2022/12/15 07:56:41;;;;;;;30.83;19.85;;;-4.30;99.90;;;;;;5066496;28;20041;-75
2022/12/15 07:59:06;;;;;;;32.38;17.90;;;-4.30;99.90;;;;;;5034513;28;20041;-74
2022/12/15 08:01:34;;;;;;;30.20;19.85;;;-4.30;99.90;;;;;;5067820;28;20086;-74
2022/12/15 08:04:00;;;;;;;28.48;19.10;;;-4.20;99.90;;;;;;5048034;28;20036;-74
2022/12/15 08:06:26;;;;;;;29.27;18.15;;;-4.20;99.90;;;;;;5052842;28;20039;-74
2022/12/15 08:08:52;;;;;;;27.95;18.63;;;-4.10;99.90;;;;;;5068844;28;20040;-74
2022/12/15 08:11:20;;;;;;;30.23;19.63;;;-4.10;99.90;;;;;;5065500;28;20051;-74
2022/12/15 08:13:45;;;;;;;28.17;18.25;;;-4.10;99.90;;;;;;5068070;28;20114;-75
2022/12/15 08:16:11;;;;;;;25.88;17.80;;;-4.00;99.90;;;;;;5046547;28;20045;-75
2022/12/15 08:18:38;;;;;;;30.20;18.88;;;-4.00;99.90;;;;;;5066184;28;20410;-75
2022/12/15 08:21:09;;;;;;;28.27;19.05;;;-3.90;99.90;;;;;;5065742;28;20049;-75
2022/12/15 08:23:35;;;;;;;30.52;19.92;;;-3.80;99.90;;;;;;5060394;28;20039;-75
2022/12/15 08:26:13;;;;;;;34.28;19.58;;;-3.60;99.90;;;;;;5047312;28;20479;-74
2022/12/15 08:28:39;;;;;;;29.27;18.90;;;-3.50;99.90;;;;;;5044026;28;20040;-74
2022/12/15 08:31:08;;;;;;;28.52;20.42;;;-3.50;99.90;;;;;;5065796;28;20041;-74
2022/12/15 08:33:34;;;;;;;29.35;19.15;;;-3.40;99.90;;;;;;5061103;28;20079;-74
2022/12/15 08:36:03;;;;;;;32.38;18.75;;;-3.40;99.90;;;;;;5063043;28;20489;-75
2022/12/15 08:38:29;;;;;;;32.45;19.05;;;-3.30;99.90;;;;;;5061635;28;20437;-75
2022/12/15 08:40:55;;;;;;;27.75;18.08;;;-3.20;99.90;;;;;;5058880;28;20049;-74
2022/12/15 08:43:21;;;;;;;28.92;18.63;;;-3.20;99.90;;;;;;5047197;28;20127;-74
2022/12/15 08:45:47;;;;;;;27.55;18.85;;;-3.20;99.90;;;;;;5061613;28;20123;-74
2022/12/15 08:48:13;;;;;;;27.38;17.35;;;-3.20;99.90;;;;;;5046151;28;20059;-74
2022/12/15 08:50:44;;;;;;;22.75;16.52;;;-3.20;99.90;;;;;;5063550;28;20078;-74
2022/12/15 08:53:11;;;;;;;26.48;17.60;;;-3.20;99.90;;;;;;5066568;28;20055;-74
2022/12/15 08:55:36;;;;;;;24.23;16.33;;;-3.20;99.90;;;;;;5064780;28;20049;-74
2022/12/15 08:58:02;;;;;;;23.10;16.02;;;-3.30;99.90;;;;;;5063063;28;20391;-74
2022/12/15 09:00:28;;;;;;;24.48;17.55;;;-3.30;99.90;;;;;;5066293;28;20510;-75
2022/12/15 09:02:53;;;;;;;24.75;17.25;;;-3.30;99.90;;;;;;5063146;28;20048;-75
2022/12/15 09:05:19;;;;;;;27.02;17.08;;;-3.30;99.90;;;;;;5066698;28;20501;-74
2022/12/15 09:07:45;;;;;;;28.45;17.83;;;-3.30;99.90;;;;;;5060451;28;20037;-74
2022/12/15 09:10:10;;;;;;;26.58;17.25;;;-3.30;99.90;;;;;;5056832;28;20181;-74
2022/12/15 09:12:36;;;;;;;26.27;16.73;;;-3.30;99.90;;;;;;5064071;28;20147;-74
2022/12/15 09:15:02;;;;;;;25.15;17.00;;;-3.30;99.90;;;;;;5066986;28;20045;-74
2022/12/15 09:17:27;;;;;;;30.50;17.05;;;-3.20;99.90;;;;;;5068239;28;20049;-74
2022/12/15 09:19:53;;;;;;;27.23;17.83;;;-3.20;99.90;;;;;;5070865;28;20040;-75
2022/12/15 09:22:19;;;;;;;28.92;17.83;;;;;;;;;;5063443;28;20044;-75
2022/12/15 09:24:45;;;;;;;27.05;17.13;;;-3.10;99.90;;;;;;5059665;28;20041;-74
2022/12/15 09:27:11;;;;;;;25.73;17.77;;;-3.00;99.90;;;;;;5069153;28;20052;-75
2022/12/15 09:29:36;;;;;;;26.67;17.65;;;-3.00;99.90;;;;;;5071933;28;20041;-75
2022/12/15 09:32:02;;;;;;;28.30;17.70;;;-2.90;99.90;;;;;;5070986;28;20479;-74
2022/12/15 09:34:28;;;;;;;26.77;17.63;;;-2.90;99.90;;;;;;5058173;28;20052;-75
2022/12/15 09:36:54;;;;;;;27.83;18.83;;;-2.90;99.90;;;;;;5065618;28;20036;-75
2022/12/15 09:39:19;;;;;;;27.65;17.90;;;-2.80;99.90;;;;;;5044263;28;20048;-75
2022/12/15 09:41:54;;;;;;;24.30;17.35;;;-2.80;99.90;;;;;;5068010;28;20064;-75
2022/12/15 09:44:22;;;;;;;31.08;17.30;;;-2.70;99.90;;;;;;5053691;28;20045;-75
2022/12/15 09:47:17;;;;;;;32.05;18.17;;;-2.60;99.90;;;;;;5063446;28;20078;-75
2022/12/15 09:49:48;;;;;;;24.48;16.95;;;-2.60;99.90;;;;;;5056348;28;20625;-75
2022/12/15 09:52:18;;;;;;;28.77;18.27;;;-2.50;99.90;;;;;;5069870;28;20036;-75
2022/12/15 09:54:45;;;;;;;26.98;18.10;;;-2.40;99.90;;;;;;5040620;28;20175;-75
2022/12/15 09:57:33;;;;;;;26.85;17.77;;;-2.40;99.90;;;;;;5066430;28;20514;-75
2022/12/15 09:59:59;;;;;;;23.92;17.88;;;-2.30;99.90;;;;;;5052474;28;20053;-75
2022/12/15 10:02:37;;;;;;;27.00;18.02;;;-2.30;99.90;;;;;;5067268;28;20445;-75
2022/12/15 10:05:29;;;;;;;26.35;17.63;;;-2.20;99.90;;;;;;5066733;28;20040;-74
2022/12/15 10:07:58;;;;;;;26.77;18.70;;;-2.00;99.90;;;;;;5065992;28;20064;-75
2022/12/15 10:10:41;;;;;;;27.08;19.02;;;-1.90;99.90;;;;;;5055992;28;20041;-75
2022/12/15 10:13:23;;;;;;;29.75;18.88;;;-1.80;99.90;;;;;;5073474;28;20076;-75
2022/12/15 10:16:17;;;;;;;28.02;19.75;;;-1.60;99.90;;;;;;5071364;28;20052;-75
2022/12/15 10:19:15;;;;;;;25.35;18.17;;;-1.40;99.90;;;;;;5068163;28;20036;-75
2022/12/15 10:21:41;;;;;;;26.95;19.27;;;-1.30;99.90;;;;;;5065692;28;20053;-75
2022/12/15 10:24:14;;;;;;;29.52;20.30;;;-1.20;99.90;;;;;;5073200;28;20032;-75
2022/12/15 10:26:41;;;;;;;27.00;19.15;;;-1.20;99.90;;;;;;5071188;28;20047;-75
2022/12/15 10:29:15;;;;;;;30.03;19.33;;;-1.10;99.90;;;;;;5073368;28;20112;-74
2022/12/15 10:31:52;;;;;;;25.25;19.10;;;-1.00;99.90;;;;;;5054382;28;20409;-78
2022/12/15 10:34:32;;;;;;;29.25;20.23;;;-1.00;99.90;;;;;;5073930;28;20045;-75
2022/12/15 10:36:58;;;;;;;30.80;20.75;;;-0.90;99.90;;;;;;5070715;28;20079;-75
2022/12/15 10:39:39;;;;;;;29.17;20.75;;;-0.80;99.90;;;;;;5069114;28;20041;-76
2022/12/15 10:42:13;;;;;;;28.95;20.48;;;-0.80;99.90;;;;;;5059470;28;20048;-76
2022/12/15 10:44:41;;;;;;;25.25;20.48;;;-0.70;99.90;;;;;;5038896;28;20478;-76
2022/12/15 10:47:28;;;;;;;28.05;19.00;;;-0.70;99.90;;;;;;5073738;28;20044;-75
2022/12/15 10:50:14;;;;;;;21.80;18.00;;;-0.60;99.90;;;;;;5070549;28;20056;-75
2022/12/15 10:52:40;;;;;;;27.45;18.45;;;-0.50;99.90;;;;;;5071092;28;20044;-75
2022/12/15 10:55:32;;;;;;;29.08;18.15;;;-0.50;99.90;;;;;;5050890;28;20102;-75
2022/12/15 10:57:59;;;;;;;27.08;18.33;;;-0.40;99.90;;;;;;5043214;28;20036;-75
2022/12/15 11:00:31;;;;;;;27.58;19.67;;;-0.40;99.90;;;;;;5021955;28;20052;-75
2022/12/15 11:02:57;;;;;;;21.13;17.38;;;-0.30;99.90;;;;;;5070238;28;20037;-74
2022/12/15 11:05:24;;;;;;;26.13;18.88;;;-0.30;99.90;;;;;;5039288;28;20517;-74
2022/12/15 11:07:53;;;;;;;25.17;18.65;;;-0.20;99.90;;;;;;5041721;28;20413;-74
2022/12/15 11:14:01;;;;;;;26.80;18.88;;;-0.10;99.90;;;;;;5070083;28;20050;-75
2022/12/15 11:16:29;;;;;;;26.02;19.63;;;-0.10;99.90;;;;;;5060441;28;20036;-75
2022/12/15 11:19:03;;;;;;;;;;;0.00;99.90;;;;;;5068008;28;20045;-75
2022/12/15 11:21:35;;;;;;;28.63;21.20;;;0.10;99.90;;;;;;5084731;28;20022;-75
2022/12/15 11:24:18;;;;;;;27.17;19.63;;;0.20;99.90;;;;;;5069849;28;20044;-75
2022/12/15 11:27:07;;;;;;;25.55;18.85;;;0.30;99.90;;;;;;5064111;28;20037;-75
2022/12/15 11:30:03;;;;;;;23.55;18.45;;;0.40;99.90;;;;;;5070797;28;20048;-75
2022/12/15 11:32:33;;;;;;;25.80;19.15;;;0.50;99.90;;;;;;5057337;28;20037;-75
2022/12/15 11:34:59;;;;;;;29.13;18.88;;;0.50;99.90;;;;;;5054971;28;20106;-75
2022/12/15 11:37:37;;;;;;;24.23;18.88;;;0.60;99.90;;;;;;5048509;28;20033;-75
2022/12/15 11:40:22;;;;;;;;;;;0.50;99.90;;;;;;5030050;28;20041;-75
2022/12/15 11:42:51;;;;;;;24.60;17.77;;;0.50;99.90;;;;;;5036255;28;20011;-75
2022/12/15 11:45:43;;;;;;;26.98;19.05;;;0.50;99.90;;;;;;5044552;28;20045;-75
2022/12/15 11:48:16;;;;;;;25.33;18.50;;;0.40;99.90;;;;;;5069948;28;20433;-75
2022/12/15 11:50:50;;;;;;;22.88;18.00;;;0.40;99.90;;;;;;5068949;28;20052;-75
2022/12/15 11:53:34;;;;;;;24.23;18.52;;;0.30;99.90;;;;;;5035785;28;20049;-75
2022/12/15 11:56:15;;;;;;;27.38;19.13;;;0.20;99.90;;;;;;5042860;28;20506;-75
2022/12/15 11:59:17;;;;;;;25.20;19.02;;;0.20;99.90;;;;;;5050793;28;20059;-75
2022/12/15 12:02:16;;;;;;;25.48;20.33;;;0.20;99.90;;;;;;5063056;28;20102;-75
2022/12/15 12:05:08;;;;;;;25.35;19.60;;;0.40;99.90;;;;;;5070015;28;20562;-75
2022/12/15 12:07:43;;;;;;;26.58;19.40;;;0.50;99.90;;;;;;5059791;28;20109;-75
2022/12/15 12:10:47;;;;;;;26.58;19.58;;;0.60;99.90;;;;;;5069426;28;20041;-75
2022/12/15 12:13:22;;;;;;;28.02;20.02;;;0.60;99.90;;;;;;5058678;28;20115;-75
2022/12/15 12:16:14;;;;;;;25.77;20.17;;;0.70;99.90;;;;;;5063506;28;20155;-75
2022/12/15 12:18:47;;;;;;;24.15;20.25;;;0.70;99.90;;;;;;5027438;28;20058;-75
2022/12/15 12:21:15;;;;;;;25.92;20.55;;;0.80;99.90;;;;;;5066747;28;20098;-75
2022/12/15 12:23:41;;;;;;;29.15;21.60;;;0.90;99.90;;;;;;5067456;28;20056;-75
2022/12/15 12:26:44;;;;;;;29.67;22.58;;;1.00;99.90;;;;;;5069708;28;20090;-75
2022/12/15 12:29:19;;;;;;;29.45;20.25;;;1.20;99.90;;;;;;5044152;28;20374;-75
2022/12/15 12:31:50;;;;;;;30.67;21.55;;;1.30;99.90;;;;;;5059317;28;20589;-76
2022/12/15 12:34:43;;;;;;;26.75;20.98;;;1.50;99.90;;;;;;5057145;28;20040;-76
2022/12/15 12:37:20;;;;;;;27.17;21.33;;;1.60;99.90;;;;;;5060463;28;20048;-76
2022/12/15 12:39:47;;;;;;;29.98;21.30;;;1.70;99.90;;;;;;5066214;28;20048;-76
2022/12/15 12:42:41;;;;;;;23.80;19.87;;;1.60;99.90;;;;;;5068621;28;20044;-76
2022/12/15 12:45:12;;;;;;;27.35;19.10;;;1.60;99.90;;;;;;5045292;28;20502;-76
2022/12/15 12:47:43;;;;;;;28.08;20.33;;;1.40;99.90;;;;;;5066020;28;20116;-76
2022/12/15 12:50:27;;;;;;;26.00;20.17;;;1.30;99.90;;;;;;5054088;28;20064;-76
2022/12/15 12:52:59;;;;;;;27.02;20.42;;;1.30;99.90;;;;;;5072672;28;20127;-75
2022/12/15 12:55:27;;;;;;;28.55;20.48;;;1.30;99.90;;;;;;5065984;28;20415;-77
2022/12/15 12:57:54;;;;;;;31.20;21.50;;;1.30;99.90;;;;;;5071289;28;20056;-76
2022/12/15 13:00:28;;;;;;;27.02;21.15;;;1.30;99.90;;;;;;5068113;28;20037;-76
2022/12/15 13:03:20;;;;;;;25.08;20.27;;;1.30;99.90;;;;;;5045599;28;20036;-77
2022/12/15 13:05:48;;;;;;;26.50;19.45;;;1.20;99.90;;;;;;5034230;28;20090;-77
2022/12/15 13:08:14;;;;;;;27.33;20.35;;;1.20;99.90;;;;;;5054122;28;20041;-77
2022/12/15 13:10:42;;;;;;;27.13;19.98;;;1.00;99.90;;;;;;5069451;28;20067;-77
2022/12/15 13:13:29;;;;;;;25.20;18.65;;;1.00;99.90;;;;;;5056548;28;20041;-77
2022/12/15 13:16:19;;;;;;;28.00;18.88;;;0.90;99.90;;;;;;5067277;28;20055;-77
2022/12/15 13:19:06;;;;;;;29.50;20.50;;;0.90;99.90;;;;;;5074808;28;20097;-77
2022/12/15 13:21:41;;;;;;;28.45;21.17;;;0.90;99.90;;;;;;5031235;28;20510;-77
2022/12/15 13:24:36;;;;;;;32.55;21.25;;;0.90;99.90;;;;;;5054686;28;20052;-77
2022/12/15 13:27:07;;;;;;;24.05;18.98;;;0.90;99.90;;;;;;5067007;28;20037;-77
2022/12/15 13:30:12;;;;;;;27.70;19.98;;;0.90;99.90;;;;;;5061054;28;20040;-79
2022/12/15 13:32:41;;;;;;;27.05;21.13;;;0.90;99.90;;;;;;5066520;28;20036;-79
2022/12/15 13:35:12;;;;;;;28.27;21.20;;;0.80;99.90;;;;;;5068697;28;20045;-79
2022/12/15 13:37:54;;;;;;;29.08;21.42;;;0.80;99.90;;;;;;5057454;28;20053;-79
2022/12/15 13:40:48;;;;;;;27.92;20.77;;;0.70;99.90;;;;;;5056660;28;20055;-79
2022/12/15 13:43:26;;;;;;;27.15;21.10;;;0.70;99.90;;;;;;5071084;28;20036;-79
2022/12/15 13:46:08;;;;;;;28.98;21.42;;;0.60;99.90;;;;;;5063341;28;20102;-79
2022/12/15 13:48:36;;;;;;;26.30;20.60;;;0.60;99.90;;;;;;5068168;28;20055;-80
2022/12/15 13:51:32;;;;;;;28.67;20.95;;;0.50;99.90;;;;;;5065880;28;20556;-79
2022/12/15 13:54:14;;;;;;;29.67;21.48;;;0.50;99.90;;;;;;5075505;28;20059;-80
2022/12/15 13:57:09;;;;;;;27.77;21.27;;;0.50;99.90;;;;;;5074012;28;20048;-80
2022/12/15 13:59:47;;;;;;;37.05;22.35;;;0.50;99.90;;;;;;5028907;28;20075;-80
2022/12/15 14:02:32;;;;;;;;;;;0.50;99.90;;;;;;5085211;28;20036;-80
2022/12/15 14:05:13;;;;;;;26.75;20.85;;;0.50;99.90;;;;;;5082006;28;19943;-78
2022/12/15 14:08:00;;;;;;;31.30;23.35;;;0.50;99.90;;;;;;5069773;28;20045;-76
2022/12/15 14:10:40;;;;;;;29.85;23.02;;;0.40;99.90;;;;;;5048476;28;20433;-77
2022/12/15 14:13:39;;;;;;;30.25;23.13;;;0.40;99.90;;;;;;5030345;28;20040;-78
2022/12/15 14:16:17;;;;;;;31.90;23.73;;;0.30;99.90;;;;;;5034884;28;20049;-76
2022/12/15 14:18:44;;;;;;;29.45;24.05;;;0.30;99.90;;;;;;5065025;28;20041;-81
2022/12/15 14:21:29;;;;;;;30.75;22.90;;;0.30;99.90;;;;;;5050070;28;20071;-77
2022/12/15 14:23:56;;;;;;;32.05;24.52;;;0.30;99.90;;;;;;5054953;28;20064;-78
2022/12/15 14:26:30;;;;;;;34.13;25.30;;;0.30;99.90;;;;;;5076527;28;20402;-78
2022/12/15 14:29:04;;;;;;;26.50;20.42;;;0.30;99.90;;;;;;5063239;28;20040;-77
2022/12/15 14:31:30;;;;;;;33.72;25.40;;;0.40;99.90;;;;;;5033054;28;20482;-77
2022/12/15 14:34:27;;;;;;;31.27;24.05;;;0.40;99.90;;;;;;5066647;28;20504;-75
2022/12/15 14:36:56;;;;;;;30.98;25.38;;;0.40;99.90;;;;;;5071581;28;20410;-76
2022/12/15 14:39:34;;;;;;;32.92;24.65;;;0.30;99.90;;;;;;5072314;28;20091;-76
2022/12/15 14:42:01;;;;;;;37.63;26.17;;;0.30;99.90;;;;;;5059900;28;22166;-76
2022/12/15 14:44:32;;;;;;;35.13;25.52;;;0.20;99.90;;;;;;5074243;28;20029;-76
2022/12/15 14:47:00;;;;;;;34.88;25.80;;;0.10;99.90;;;;;;5060503;28;20124;-76
2022/12/15 14:49:30;;;;;;;33.00;25.83;;;0.10;99.90;;;;;;5055404;28;20119;-79
2022/12/15 14:52:01;;;;;;;32.10;25.25;;;0.10;99.90;;;;;;5070061;28;20399;-75
2022/12/15 14:54:36;;;;;;;38.40;27.10;;;0.00;99.90;;;;;;5048648;28;20048;-77
2022/12/15 14:57:08;;;;;;;34.95;24.48;;;0.00;99.90;;;;;;5067892;28;20055;-77
2022/12/15 14:59:34;;;;;;;37.88;26.65;;;-0.10;99.90;;;;;;5065626;28;20067;-77
2022/12/15 15:02:18;;;;;;;38.15;26.73;;;-0.10;99.90;;;;;;5070674;28;20089;-77
2022/12/15 15:04:58;;;;;;;36.65;27.05;;;-0.20;99.90;;;;;;5073869;28;20036;-77
2022/12/15 15:07:27;;;;;;;34.08;26.27;;;-0.20;99.90;;;;;;5054749;28;20475;-77
2022/12/15 15:09:53;;;;;;;38.88;27.38;;;-0.30;99.90;;;;;;5056774;28;20174;-77
2022/12/15 15:12:44;;;;;;;35.40;28.08;;;-0.30;99.90;;;;;;5062071;28;20101;-77
2022/12/15 15:15:23;;;;;;;34.38;27.25;;;-0.20;99.90;;;;;;5027467;28;20482;-78